Time;durP1;ratioP1;P1;durP2;ratioP2;P2;SDS_P1;SDS_P2;PMS_P1;PMS_P2;Temp;Humidity;BMP_temperature;BMP_pressure;BME280_temperature;BME280_humidity;BME280_pressure;Samples;Min_cycle;Max_cycle;Signal;HPM_P1;HPM_P2
2024/03/03 00:02:02;;;;;;;2.00;1.50;;;;;9.70;99190.00;;;;10329722;28;20383;-79
2024/03/03 00:07:04;;;;;;;2.27;1.30;;;;;9.70;99191.00;;;;10328812;28;20554;-78
2024/03/03 00:12:05;;;;;;;2.93;1.33;;;;;9.60;99195.00;;;;10331334;28;20223;-79
2024/03/03 00:17:06;;;;;;;1.87;1.70;;;;;9.60;99206.00;;;;10343460;28;20306;-78
2024/03/03 00:22:08;;;;;;;2.20;1.80;;;;;9.50;99199.00;;;;10342920;28;20219;-79
2024/03/03 00:27:09;;;;;;;3.30;1.80;;;;;9.50;99208.00;;;;10349469;28;20223;-78
2024/03/03 00:32:10;;;;;;;2.80;2.10;;;;;9.40;99207.00;;;;10364598;28;20304;-78
2024/03/03 00:37:13;;;;;;;3.37;1.73;;;;;9.40;99209.00;;;;10336523;28;20253;-78
2024/03/03 00:42:15;;;;;;;2.00;1.57;;;;;9.40;99212.00;;;;10413674;28;20309;-77
2024/03/03 00:47:16;;;;;;;2.23;1.60;;;;;9.30;99207.00;;;;10361220;28;20214;-78
2024/03/03 00:52:17;;;;;;;2.40;1.73;;;;;9.20;99210.00;;;;10381345;28;20279;-79
2024/03/03 00:57:18;;;;;;;2.20;1.30;;;;;9.20;99209.00;;;;10383813;28;20788;-77
2024/03/03 01:02:19;;;;;;;1.20;1.00;;;;;9.20;99197.00;;;;10363118;28;20705;-77
2024/03/03 01:07:21;;;;;;;1.97;1.27;;;;;9.20;99185.00;;;;10357177;28;20214;-77
2024/03/03 01:12:22;;;;;;;1.30;1.20;;;;;9.20;99190.00;;;;10375223;28;20230;-78
2024/03/03 01:17:23;;;;;;;2.77;1.07;;;;;9.20;99183.00;;;;10356115;28;20238;-77
2024/03/03 01:22:25;;;;;;;2.07;1.30;;;;;9.10;99186.00;;;;10382044;28;20223;-77
2024/03/03 01:27:27;;;;;;;1.40;1.10;;;;;9.10;99195.00;;;;10360787;28;20631;-77
2024/03/03 01:32:29;;;;;;;4.20;1.17;;;;;9.10;99191.00;;;;10379447;28;20214;-77
2024/03/03 01:37:30;;;;;;;1.50;1.30;;;;;9.10;99183.00;;;;10370161;28;20249;-77
2024/03/03 01:42:32;;;;;;;1.87;1.20;;;;;9.10;99180.00;;;;10366447;28;20798;-77
2024/03/03 01:47:34;;;;;;;3.17;1.30;;;;;9.10;99190.00;;;;10383376;28;20299;-77
2024/03/03 01:52:36;;;;;;;2.87;1.13;;;;;9.10;99183.00;;;;10361784;28;20237;-77
2024/03/03 01:57:38;;;;;;;1.63;1.20;;;;;9.10;99183.00;;;;10375584;28;20227;-78
2024/03/03 02:02:39;;;;;;;2.50;1.10;;;;;9.10;99175.00;;;;10391371;28;20718;-75
2024/03/03 02:07:40;;;;;;;2.27;1.20;;;;;9.00;99166.00;;;;10372517;28;20265;-77
2024/03/03 02:12:45;;;;;;;4.13;1.23;;;;;9.00;99174.00;;;;10386072;28;20219;-77
2024/03/03 02:17:49;;;;;;;3.07;1.33;;;;;8.90;99174.00;;;;10364018;28;20253;-78
2024/03/03 02:22:51;;;;;;;1.87;1.40;;;;;8.90;99175.00;;;;10393831;28;20234;-78
2024/03/03 02:27:53;;;;;;;2.67;1.50;;;;;8.90;99169.00;;;;10401001;28;20245;-78
2024/03/03 02:32:54;;;;;;;2.03;1.50;;;;;8.90;99171.00;;;;10374549;28;20222;-78
2024/03/03 02:37:56;;;;;;;3.27;1.50;;;;;8.90;99172.00;;;;10364790;28;20303;-77
2024/03/03 02:42:57;;;;;;;2.63;1.40;;;;;8.80;99183.00;;;;10374278;28;20226;-78
2024/03/03 02:47:58;;;;;;;2.03;1.10;;;;;8.70;99185.00;;;;10365680;28;20254;-77
2024/03/03 02:52:59;;;;;;;1.90;1.40;;;;;8.60;99177.00;;;;10385284;28;20225;-77
2024/03/03 02:58:01;;;;;;;2.77;1.60;;;;;8.60;99179.00;;;;10384984;28;20295;-77
2024/03/03 03:03:02;;;;;;;3.33;1.80;;;;;8.60;99182.00;;;;10358977;28;20591;-77
2024/03/03 03:08:04;;;;;;;3.53;1.37;;;;;8.50;99176.00;;;;10365421;28;20222;-78
2024/03/03 03:13:05;;;;;;;2.30;1.60;;;;;8.50;99174.00;;;;10384361;28;20276;-78
2024/03/03 03:18:06;;;;;;;3.33;1.50;;;;;8.50;99179.00;;;;10354176;28;20229;-76
2024/03/03 03:23:07;;;;;;;1.80;1.60;;;;;8.50;99178.00;;;;10368326;28;20834;-77
2024/03/03 03:28:08;;;;;;;1.87;1.77;;;;;8.50;99183.00;;;;10363125;28;20229;-76
2024/03/03 03:33:10;;;;;;;3.27;1.83;;;;;8.50;99190.00;;;;10365703;28;20791;-76
2024/03/03 03:38:11;;;;;;;2.00;1.80;;;;;8.50;99188.00;;;;10360149;28;20219;-75
2024/03/03 03:43:12;;;;;;;1.70;1.60;;;;;8.40;99189.00;;;;10374349;28;20249;-76
2024/03/03 03:48:13;;;;;;;3.40;1.70;;;;;8.40;99204.00;;;;10359650;28;20228;-77
2024/03/03 03:53:15;;;;;;;5.00;1.83;;;;;8.40;99214.00;;;;10367805;28;20215;-76
2024/03/03 03:58:16;;;;;;;4.20;2.07;;;;;8.40;99230.00;;;;10365712;28;20226;-76
2024/03/03 04:03:17;;;;;;;5.63;2.10;;;;;8.40;99209.00;;;;10362447;28;20251;-76
2024/03/03 04:08:18;;;;;;;4.90;2.47;;;;;8.40;99211.00;;;;10393790;28;20711;-75
2024/03/03 04:13:19;;;;;;;3.37;1.90;;;;;8.40;99209.00;;;;10357763;28;20254;-76
2024/03/03 04:18:21;;;;;;;2.23;1.93;;;;;8.40;99211.00;;;;10358674;28;20231;-78
2024/03/03 04:23:26;;;;;;;2.00;1.73;;;;;8.40;99226.00;;;;10361304;28;20235;-78
2024/03/03 04:28:27;;;;;;;1.90;1.80;;;;;8.40;99239.00;;;;10367619;28;21035;-77
2024/03/03 04:33:28;;;;;;;4.07;2.50;;;;;8.40;99239.00;;;;10364455;28;20214;-77
2024/03/03 04:38:29;;;;;;;5.53;1.77;;;;;8.40;99224.00;;;;10341988;28;20214;-77
2024/03/03 04:43:30;;;;;;;3.07;2.10;;;;;8.40;99236.00;;;;10344598;28;20226;-76
2024/03/03 04:48:31;;;;;;;2.30;1.87;;;;;8.40;99236.00;;;;10364439;28;20242;-75
2024/03/03 04:53:35;;;;;;;3.70;1.90;;;;;8.40;99239.00;;;;10374377;28;20222;-76
2024/03/03 04:58:36;;;;;;;4.50;2.77;;;;;8.30;99242.00;;;;10416458;28;20252;-78
2024/03/03 05:03:38;;;;;;;5.30;3.37;;;;;8.30;99244.00;;;;10376816;28;20307;-76
2024/03/03 05:08:39;;;;;;;5.67;4.77;;;;;8.20;99258.00;;;;10378730;28;20594;-77
2024/03/03 05:13:40;;;;;;;7.27;3.83;;;;;8.20;99255.00;;;;10328911;28;20238;-77
2024/03/03 05:18:42;;;;;;;5.23;4.27;;;;;8.20;99264.00;;;;10365931;28;20234;-78
2024/03/03 05:23:43;;;;;;;6.80;5.80;;;;;8.10;99265.00;;;;10375659;28;20226;-77
2024/03/03 05:28:46;;;;;;;10.80;9.57;;;;;8.10;99266.00;;;;10378912;28;20226;-77
2024/03/03 05:33:47;;;;;;;12.53;11.20;;;;;8.00;99272.00;;;;10336088;28;20300;-77
2024/03/03 05:38:48;;;;;;;14.73;13.17;;;;;8.00;99274.00;;;;10358870;28;20863;-81
2024/03/03 05:43:50;;;;;;;17.23;15.23;;;;;7.90;99283.00;;;;10339247;28;20219;-81
2024/03/03 05:48:51;;;;;;;21.00;17.30;;;;;7.90;99294.00;;;;10359481;28;20222;-81
2024/03/03 05:53:52;;;;;;;20.80;17.97;;;;;7.80;99289.00;;;;10358530;28;20261;-80
2024/03/03 05:58:54;;;;;;;20.13;17.77;;;;;7.80;99285.00;;;;10361742;28;20214;-81
2024/03/03 06:03:55;;;;;;;23.00;18.97;;;;;7.70;99289.00;;;;10375074;28;20231;-81
2024/03/03 06:08:56;;;;;;;23.53;19.70;;;;;7.60;99297.00;;;;10381618;28;20223;-81
2024/03/03 06:13:57;;;;;;;21.87;19.10;;;;;7.50;99299.00;;;;10356924;28;20249;-81
2024/03/03 06:18:58;;;;;;;24.80;20.73;;;;;7.50;99314.00;;;;10389061;28;20869;-81
2024/03/03 06:24:00;;;;;;;23.00;19.97;;;;;7.50;99323.00;;;;10353047;28;20956;-81
2024/03/03 06:29:03;;;;;;;26.23;19.33;;;;;7.50;99328.00;;;;10372468;28;20246;-79
2024/03/03 06:34:08;;;;;;;24.17;18.83;;;;;7.40;99340.00;;;;10377373;28;20227;-81
2024/03/03 06:39:12;;;;;;;23.23;19.20;;;;;7.40;99334.00;;;;10374797;28;20218;-81
2024/03/03 06:44:16;;;;;;;25.43;19.70;;;;;7.40;99352.00;;;;10363314;28;20223;-81
2024/03/03 06:49:17;;;;;;;29.53;21.83;;;;;7.40;99350.00;;;;10352753;28;20217;-81
2024/03/03 06:54:18;;;;;;;27.50;20.90;;;;;7.40;99351.00;;;;10361288;28;20222;-80
2024/03/03 06:59:19;;;;;;;36.03;23.77;;;;;7.40;99356.00;;;;10392209;28;20229;-81
2024/03/03 07:04:23;;;;;;;32.80;23.00;;;;;7.40;99373.00;;;;10373014;28;20319;-80
2024/03/03 07:09:25;;;;;;;33.83;22.90;;;;;7.50;99376.00;;;;10360027;28;20211;-80
2024/03/03 07:14:26;;;;;;;35.57;25.50;;;;;7.50;99373.00;;;;10380738;28;20210;-81
2024/03/03 07:19:27;;;;;;;38.77;26.20;;;;;7.60;99373.00;;;;10361286;28;20229;-81
2024/03/03 07:24:29;;;;;;;41.50;26.67;;;;;7.60;99367.00;;;;10361720;28;20364;-80
2024/03/03 07:29:30;;;;;;;41.67;27.00;;;;;7.70;99371.00;;;;10362274;28;20242;-80
2024/03/03 07:34:31;;;;;;;45.13;30.10;;;;;7.80;99377.00;;;;10346079;28;20226;-81
2024/03/03 07:39:32;;;;;;;39.60;25.10;;;;;7.80;99380.00;;;;10400409;28;20830;-80
2024/03/03 07:44:34;;;;;;;43.20;27.63;;;;;7.90;99378.00;;;;10377653;28;20242;-81
2024/03/03 07:49:35;;;;;;;44.83;29.43;;;;;7.90;99361.00;;;;10358603;28;20231;-81
2024/03/03 07:54:36;;;;;;;50.10;31.30;;;;;8.20;99356.00;;;;10355330;28;20221;-80
2024/03/03 07:59:37;;;;;;;52.67;32.77;;;;;8.50;99380.00;;;;10373925;28;20681;-81
2024/03/03 08:04:38;;;;;;;52.30;31.83;;;;;8.60;99375.00;;;;10351323;28;20230;-80
2024/03/03 08:09:39;;;;;;;49.93;31.87;;;;;8.60;99362.00;;;;10344006;28;20250;-81
2024/03/03 08:14:40;;;;;;;50.53;33.57;;;;;8.70;99364.00;;;;10352135;28;20216;-81
2024/03/03 08:19:41;;;;;;;47.57;30.03;;;;;8.60;99369.00;;;;10362623;28;20218;-81
2024/03/03 08:24:43;;;;;;;47.60;30.07;;;;;8.70;99363.00;;;;10358784;28;20248;-81
2024/03/03 08:29:44;;;;;;;57.23;34.77;;;;;9.00;99386.00;;;;10367187;28;20223;-80
2024/03/03 08:34:45;;;;;;;50.37;32.30;;;;;9.40;99388.00;;;;10366339;28;20306;-81
2024/03/03 08:39:46;;;;;;;49.57;32.13;;;;;9.40;99401.00;;;;10349828;28;20954;-80
2024/03/03 08:44:47;;;;;;;48.33;30.53;;;;;9.30;99404.00;;;;10357971;28;20234;-82
2024/03/03 08:49:48;;;;;;;49.07;32.53;;;;;9.30;99423.00;;;;10378208;28;20222;-81
2024/03/03 08:54:49;;;;;;;50.43;30.53;;;;;9.20;99418.00;;;;10343105;28;20873;-80
2024/03/03 08:59:51;;;;;;;49.90;31.53;;;;;9.30;99413.00;;;;10332227;28;20574;-81
2024/03/03 09:04:52;;;;;;;48.53;30.73;;;;;9.50;99416.00;;;;10351707;28;20219;-81
2024/03/03 09:09:53;;;;;;;50.40;29.83;;;;;9.40;99413.00;;;;10373966;28;20638;-84
2024/03/03 09:14:54;;;;;;;51.97;30.07;;;;;9.40;99399.00;;;;10341582;28;20214;-83
2024/03/03 09:19:55;;;;;;;55.27;32.03;;;;;9.40;99400.00;;;;10378730;28;20805;-82
2024/03/03 09:24:56;;;;;;;55.90;31.53;;;;;9.60;99406.00;;;;10344707;28;20230;-83
2024/03/03 09:29:58;;;;;;;56.47;30.47;;;;;9.70;99383.00;;;;10359609;28;20223;-84
2024/03/03 09:34:59;;;;;;;52.03;28.93;;;;;9.70;99382.00;;;;10342650;28;20729;-84
2024/03/03 09:40:02;;;;;;;55.27;30.07;;;;;9.90;99379.00;;;;10354446;28;20222;-83
2024/03/03 09:45:10;;;;;;;58.97;33.03;;;;;10.00;99390.00;;;;10311753;28;20231;-84
2024/03/03 09:50:14;;;;;;;63.73;32.57;;;;;10.40;99398.00;;;;10355835;28;20222;-84
2024/03/03 09:55:15;;;;;;;52.80;31.27;;;;;10.20;99398.00;;;;10353603;28;20294;-84
2024/03/03 10:00:17;;;;;;;53.17;29.90;;;;;10.10;99406.00;;;;10364607;28;20218;-82
2024/03/03 10:05:18;;;;;;;57.50;30.87;;;;;10.50;99407.00;;;;10385827;28;20230;-84
2024/03/03 10:10:25;;;;;;;53.60;30.13;;;;;11.20;99416.00;;;;10354742;28;20238;-82
2024/03/03 10:15:29;;;;;;;53.47;30.60;;;;;11.30;99419.00;;;;10365542;28;20233;-84
2024/03/03 10:20:32;;;;;;;49.57;28.47;;;;;11.20;99435.00;;;;10369486;28;20812;-79
2024/03/03 10:25:33;;;;;;;48.87;28.37;;;;;11.10;99456.00;;;;10348331;28;20229;-78
2024/03/03 10:30:35;;;;;;;41.80;26.13;;;;;11.30;99468.00;;;;10352272;28;20222;-80
2024/03/03 10:35:36;;;;;;;39.67;25.60;;;;;11.30;99462.00;;;;10344216;28;20227;-80
2024/03/03 10:40:37;;;;;;;40.07;26.67;;;;;11.50;99456.00;;;;10332354;28;20324;-79
2024/03/03 10:45:39;;;;;;;41.57;26.83;;;;;12.30;99465.00;;;;10339017;28;20273;-80
2024/03/03 10:50:40;;;;;;;35.60;24.10;;;;;12.90;99461.00;;;;10355368;28;20682;-80
2024/03/03 10:55:42;;;;;;;41.13;25.87;;;;;13.20;99462.00;;;;10343616;28;20310;-78
2024/03/03 11:00:44;;;;;;;36.03;24.00;;;;;13.00;99459.00;;;;10334319;28;20238;-80
2024/03/03 11:05:49;;;;;;;40.37;26.13;;;;;12.80;99457.00;;;;10377980;28;20229;-80
2024/03/03 11:10:57;;;;;;;40.93;25.50;;;;;13.10;99458.00;;;;10379380;28;20772;-79
2024/03/03 11:16:02;;;;;;;36.87;23.93;;;;;13.30;99470.00;;;;10374149;28;20214;-80
2024/03/03 11:21:08;;;;;;;30.83;19.35;;;;;13.30;99472.00;;;;10366665;28;20252;-80
2024/03/03 11:26:12;;;;;;;34.78;21.65;;;;;13.40;99479.00;;;;10357453;28;20276;-80
2024/03/03 11:31:13;;;;;;;31.90;21.35;;;;;13.80;99483.00;;;;10377042;28;20219;-79
2024/03/03 11:36:15;;;;;;;31.00;20.48;;;;;13.50;99492.00;;;;10376417;28;20223;-80
2024/03/03 11:41:17;;;;;;;29.73;20.52;;;;;13.30;99483.00;;;;10389974;28;20725;-79
2024/03/03 11:46:48;;;;;;;31.30;20.20;;;;;13.80;99476.00;;;;10359295;28;20215;-79
2024/03/03 11:51:49;;;;;;;33.95;22.65;;;;;15.20;99476.00;;;;10374450;28;20376;-80
2024/03/03 11:56:50;;;;;;;31.63;20.38;;;;;15.60;99463.00;;;;10373197;28;20870;-79
2024/03/03 12:01:53;;;;;;;29.15;20.55;;;;;15.40;99471.00;;;;10363920;28;21410;-82
2024/03/03 12:06:54;;;;;;;30.15;20.70;;;;;15.40;99468.00;;;;10358081;28;20650;-80
2024/03/03 12:11:56;;;;;;;27.83;20.17;;;;;14.80;99486.00;;;;10385700;28;20259;-80
2024/03/03 12:16:57;;;;;;;28.73;18.60;;;;;14.50;99503.00;;;;10366991;28;20298;-80
2024/03/03 12:21:59;;;;;;;30.92;20.23;;;;;14.30;99498.00;;;;10378353;28;20254;-80
2024/03/03 12:27:03;;;;;;;25.13;18.50;;;;;14.40;99507.00;;;;10359736;28;20211;-81
2024/03/03 12:32:06;;;;;;;27.10;20.50;;;;;14.00;99508.00;;;;10349930;28;20215;-80
2024/03/03 12:37:07;;;;;;;29.13;20.70;;;;;13.90;99516.00;;;;10375431;28;20242;-84
2024/03/03 12:42:08;;;;;;;25.90;17.33;;;;;13.50;99530.00;;;;10355678;28;20230;-84
2024/03/03 12:47:16;;;;;;;28.13;20.33;;;;;13.30;99526.00;;;;10343624;28;20257;-84
2024/03/03 12:52:17;;;;;;;23.98;17.40;;;;;13.10;99532.00;;;;10361437;28;20254;-83
2024/03/03 12:57:23;;;;;;;24.50;19.30;;;;;13.30;99526.00;;;;10344406;28;20581;-84
2024/03/03 13:02:24;;;;;;;27.52;20.55;;;;;13.50;99524.00;;;;10350171;28;20237;-84
2024/03/03 13:07:26;;;;;;;30.50;22.23;;;;;13.20;99528.00;;;;10360915;28;20223;-85
2024/03/03 13:12:28;;;;;;;35.25;25.25;;;;;12.90;99549.00;;;;10343463;28;20269;-84
2024/03/03 13:17:29;;;;;;;35.42;24.02;;;;;12.80;99560.00;;;;10332787;28;20226;-83
2024/03/03 13:22:30;;;;;;;39.28;28.45;;;;;12.70;99567.00;;;;10358137;28;20227;-84
2024/03/03 13:27:34;;;;;;;38.00;27.07;;;;;12.70;99572.00;;;;10333354;28;20227;-85
2024/03/03 13:32:35;;;;;;;37.03;26.57;;;;;12.80;99578.00;;;;10370853;28;20215;-83
2024/03/03 13:37:37;;;;;;;35.53;25.20;;;;;12.50;99581.00;;;;10357909;28;20230;-84
2024/03/03 13:42:38;;;;;;;34.70;22.73;;;;;12.00;99593.00;;;;10364622;28;21868;-84
2024/03/03 13:47:39;;;;;;;34.37;21.87;;;;;11.60;99612.00;;;;10377314;28;20795;-82
2024/03/03 13:52:40;;;;;;;30.50;21.77;;;;;11.50;99611.00;;;;10378458;28;21052;-82
2024/03/03 13:57:42;;;;;;;30.93;21.70;;;;;11.90;99605.00;;;;10387951;28;20233;-81
2024/03/03 14:02:44;;;;;;;27.20;19.73;;;;;12.20;99606.00;;;;10371245;28;20235;-81
2024/03/03 14:07:45;;;;;;;27.07;20.83;;;;;12.30;99615.00;;;;10371341;28;20229;-80
2024/03/03 14:12:49;;;;;;;26.83;19.57;;;;;12.00;99632.00;;;;10385708;28;20873;-81
2024/03/03 14:17:50;;;;;;;25.53;19.57;;;;;11.50;99639.00;;;;10363090;28;20226;-81
2024/03/03 14:22:51;;;;;;;24.07;17.87;;;;;11.60;99645.00;;;;10357102;28;20226;-81
2024/03/03 14:27:53;;;;;;;25.97;19.73;;;;;11.90;99647.00;;;;10335236;28;20219;-80
2024/03/03 14:33:05;;;;;;;24.13;18.37;;;;;11.90;99649.00;;;;10343255;28;20222;-81
2024/03/03 14:38:08;;;;;;;22.73;16.37;;;;;11.50;99639.00;;;;10372081;28;20250;-81
2024/03/03 14:43:09;;;;;;;22.87;15.73;;;;;11.00;99641.00;;;;10330812;28;20249;-81
2024/03/03 14:48:33;;;;;;;21.37;15.57;;;;;10.60;99661.00;;;;10378342;28;20244;-82
2024/03/03 14:53:34;;;;;;;27.73;19.80;;;;;10.40;99675.00;;;;10341917;28;20223;-81
2024/03/03 14:58:36;;;;;;;27.30;20.67;;;;;10.20;99683.00;;;;10379097;28;20234;-87
2024/03/03 15:03:37;;;;;;;33.23;23.37;;;;;10.00;99678.00;;;;10363330;28;20226;-80
2024/03/03 15:08:38;;;;;;;28.47;20.83;;;;;9.90;99689.00;;;;10368961;28;20256;-88
2024/03/03 15:13:39;;;;;;;33.27;24.23;;;;;9.80;99693.00;;;;10394190;28;20223;-86
2024/03/03 15:18:40;;;;;;;33.13;24.33;;;;;9.70;99693.00;;;;10360408;28;20218;-86
2024/03/03 15:23:41;;;;;;;38.07;26.17;;;;;9.50;99693.00;;;;10384319;28;20497;-84
2024/03/03 15:28:42;;;;;;;34.87;23.10;;;;;9.30;99686.00;;;;10362665;28;20230;-85
2024/03/03 15:33:43;;;;;;;24.60;20.20;;;;;9.20;99677.00;;;;10370731;28;20230;-85
2024/03/03 15:38:44;;;;;;;17.43;13.37;;;;;8.90;99703.00;;;;10363423;28;20226;-87
2024/03/03 15:43:45;;;;;;;15.63;11.90;;;;;8.70;99713.00;;;;10355571;28;20225;-85
2024/03/03 15:48:46;;;;;;;15.73;11.23;;;;;8.60;99712.00;;;;10333317;28;20220;-87
2024/03/03 15:53:48;;;;;;;16.07;11.97;;;;;8.50;99724.00;;;;10354613;28;20227;-86
2024/03/03 15:58:49;;;;;;;12.77;9.40;;;;;8.50;99733.00;;;;10339195;28;20548;-84
2024/03/03 16:03:51;;;;;;;15.00;10.70;;;;;8.30;99744.00;;;;10370829;28;20261;-86
2024/03/03 16:08:52;;;;;;;13.93;10.57;;;;;8.30;99740.00;;;;10377458;28;20287;-82
2024/03/03 16:13:53;;;;;;;13.70;10.63;;;;;8.20;99747.00;;;;10374220;28;20266;-83
2024/03/03 16:18:55;;;;;;;14.47;9.10;;;;;8.20;99745.00;;;;10378838;28;20245;-81
2024/03/03 16:23:56;;;;;;;11.30;9.17;;;;;8.20;99738.00;;;;10336843;28;20228;-79
2024/03/03 16:28:58;;;;;;;11.10;8.20;;;;;8.20;99746.00;;;;10327151;28;20229;-78
2024/03/03 16:33:59;;;;;;;16.10;9.83;;;;;8.10;99774.00;;;;10334549;28;20223;-80
2024/03/03 16:39:04;;;;;;;11.80;8.23;;;;;8.10;99795.00;;;;10345001;28;20222;-77
2024/03/03 16:44:05;;;;;;;10.00;7.20;;;;;8.00;99790.00;;;;10353383;28;20234;-77
2024/03/03 16:49:06;;;;;;;12.93;7.80;;;;;8.00;99809.00;;;;10341799;28;20218;-77
2024/03/03 16:54:07;;;;;;;13.57;9.33;;;;;7.90;99826.00;;;;10360435;28;20218;-78
2024/03/03 16:59:08;;;;;;;13.37;9.97;;;;;7.90;99848.00;;;;10351993;28;20222;-78
2024/03/03 17:04:10;;;;;;;14.80;10.57;;;;;7.80;99859.00;;;;10344049;28;20222;-78
2024/03/03 17:09:11;;;;;;;18.00;11.73;;;;;7.70;99867.00;;;;10369560;28;20263;-78
2024/03/03 17:14:12;;;;;;;18.80;14.43;;;;;7.70;99875.00;;;;10359475;28;20322;-78
2024/03/03 17:19:13;;;;;;;17.80;13.80;;;;;7.60;99884.00;;;;10349669;28;20288;-74
2024/03/03 17:24:14;;;;;;;23.17;16.07;;;;;7.60;99891.00;;;;10340213;28;20929;-75
2024/03/03 17:29:15;;;;;;;23.93;16.47;;;;;7.40;99898.00;;;;10348793;28;20309;-76
2024/03/03 17:34:17;;;;;;;16.87;11.67;;;;;7.30;99899.00;;;;10359978;28;20305;-76
2024/03/03 17:39:18;;;;;;;12.07;9.03;;;;;7.20;99906.00;;;;10346313;28;20229;-76
2024/03/03 17:44:19;;;;;;;15.33;8.33;;;;;7.20;99908.00;;;;10350203;28;20329;-77
2024/03/03 17:49:20;;;;;;;12.77;8.00;;;;;7.20;99932.00;;;;10350472;28;20231;-75
2024/03/03 17:54:22;;;;;;;11.90;6.87;;;;;7.10;99944.00;;;;10374855;28;20230;-75
2024/03/03 17:59:26;;;;;;;10.83;5.50;;;;;7.10;99969.00;;;;10326639;28;21073;-76
2024/03/03 18:04:28;;;;;;;9.07;4.60;;;;;7.10;99969.00;;;;10355794;28;20233;-75
2024/03/03 18:09:30;;;;;;;7.40;4.30;;;;;7.00;99985.00;;;;10356613;28;20672;-76
2024/03/03 18:14:31;;;;;;;9.93;4.93;;;;;6.90;99984.00;;;;10344521;28;20785;-76
2024/03/03 18:19:32;;;;;;;4.97;4.03;;;;;6.90;99990.00;;;;10357693;28;20222;-76
2024/03/03 18:24:34;;;;;;;10.13;4.03;;;;;6.90;100013.00;;;;10326957;28;20233;-75
2024/03/03 18:29:36;;;;;;;7.90;4.63;;;;;6.90;100022.00;;;;10375017;28;20242;-81
2024/03/03 18:34:37;;;;;;;10.80;3.97;;;;;6.80;100015.00;;;;10370386;28;20607;-82
2024/03/03 18:39:38;;;;;;;4.83;3.53;;;;;6.80;100026.00;;;;10363640;28;20581;-82
2024/03/03 18:44:40;;;;;;;7.70;4.07;;;;;6.80;100028.00;;;;10349920;28;20229;-83
2024/03/03 18:49:41;;;;;;;7.03;3.63;;;;;6.80;100027.00;;;;10350158;28;20222;-82
2024/03/03 18:54:42;;;;;;;7.87;3.30;;;;;6.80;100041.00;;;;10369021;28;20233;-82
2024/03/03 18:59:43;;;;;;;7.40;3.00;;;;;6.80;100043.00;;;;10383292;28;20222;-81
2024/03/03 19:04:45;;;;;;;3.30;2.40;;;;;6.80;100051.00;;;;10367766;28;20249;-80
2024/03/03 19:09:46;;;;;;;6.87;2.80;;;;;6.80;100058.00;;;;10368181;28;20261;-82
2024/03/03 19:14:47;;;;;;;3.73;2.27;;;;;6.80;100067.00;;;;10374839;28;20707;-82
2024/03/03 19:19:49;;;;;;;1.67;1.50;;;;;6.80;100055.00;;;;10380426;28;20293;-81
2024/03/03 19:24:50;;;;;;;3.67;2.00;;;;;6.80;100054.00;;;;10376407;28;20253;-82
2024/03/03 19:29:52;;;;;;;3.87;2.33;;;;;6.80;100066.00;;;;10376554;28;20221;-82
2024/03/03 19:34:53;;;;;;;5.33;2.20;;;;;6.70;100083.00;;;;10349627;28;20234;-82
2024/03/03 19:39:56;;;;;;;2.97;1.63;;;;;6.70;100081.00;;;;10375179;28;20238;-83
2024/03/03 19:44:57;;;;;;;4.70;2.23;;;;;6.70;100083.00;;;;10381189;28;20222;-81
2024/03/03 19:49:59;;;;;;;5.07;2.20;;;;;6.70;100101.00;;;;10384527;28;21234;-81
2024/03/03 19:55:02;;;;;;;3.93;2.20;;;;;6.70;100092.00;;;;10365796;28;20221;-81
2024/03/03 20:00:13;;;;;;;4.67;2.70;;;;;6.70;100106.00;;;;10377061;28;20249;-81
2024/03/03 20:05:15;;;;;;;5.03;3.00;;;;;6.70;100129.00;;;;10372759;28;20222;-83
2024/03/03 20:10:16;;;;;;;5.00;2.10;;;;;6.70;100111.00;;;;10407331;28;20233;-81
2024/03/03 20:15:17;;;;;;;4.17;2.57;;;;;6.70;100117.00;;;;10426900;28;20223;-83
2024/03/03 20:20:18;;;;;;;6.67;3.10;;;;;6.70;100128.00;;;;10391309;28;20230;-81
2024/03/03 20:25:20;;;;;;;10.77;4.10;;;;;6.70;100126.00;;;;10384041;28;20226;-82
2024/03/03 20:30:21;;;;;;;6.90;3.93;;;;;6.70;100131.00;;;;10401109;28;20222;-82
2024/03/03 20:35:22;;;;;;;11.13;4.90;;;;;6.70;100130.00;;;;10388783;28;20265;-83
2024/03/03 20:40:23;;;;;;;9.90;4.70;;;;;6.70;100132.00;;;;10403751;28;20290;-82
2024/03/03 20:45:24;;;;;;;10.63;5.23;;;;;6.70;100136.00;;;;10385564;28;20514;-83
2024/03/03 20:50:26;;;;;;;11.97;5.33;;;;;6.70;100149.00;;;;10377811;28;20219;-77
2024/03/03 20:55:27;;;;;;;14.73;7.37;;;;;6.70;100158.00;;;;10381856;28;20665;-77
2024/03/03 21:00:28;;;;;;;13.67;6.50;;;;;6.70;100156.00;;;;10376845;28;20215;-78
2024/03/03 21:05:29;;;;;;;14.13;5.50;;;;;6.70;100157.00;;;;10361803;28;20226;-76
2024/03/03 21:10:30;;;;;;;6.43;3.63;;;;;6.70;100158.00;;;;10379603;28;20223;-77
2024/03/03 21:15:32;;;;;;;7.03;4.10;;;;;6.70;100166.00;;;;10399004;28;20226;-78
2024/03/03 21:20:33;;;;;;;5.63;3.87;;;;;6.80;100171.00;;;;10380017;28;20242;-76
2024/03/03 21:25:34;;;;;;;4.83;3.30;;;;;6.80;100176.00;;;;10390861;28;20219;-78
2024/03/03 21:30:35;;;;;;;5.17;3.73;;;;;6.80;100185.00;;;;10386311;28;20276;-77
2024/03/03 21:35:36;;;;;;;4.60;4.03;;;;;6.80;100203.00;;;;10374825;28;20897;-77
2024/03/03 21:40:37;;;;;;;4.53;4.07;;;;;6.80;100214.00;;;;10379098;28;20222;-77
2024/03/03 21:45:40;;;;;;;5.50;4.20;;;;;6.80;100221.00;;;;10393328;28;20226;-77
2024/03/03 21:50:43;;;;;;;6.53;4.13;;;;;6.70;100223.00;;;;10389640;28;20242;-78
2024/03/03 21:55:44;;;;;;;4.93;4.10;;;;;6.70;100228.00;;;;10372306;28;20229;-77
2024/03/03 22:00:45;;;;;;;5.00;4.50;;;;;6.70;100240.00;;;;10377497;28;20275;-78
2024/03/03 22:05:47;;;;;;;4.90;4.40;;;;;6.70;100249.00;;;;10379114;28;20864;-78
2024/03/03 22:10:49;;;;;;;5.43;4.67;;;;;6.70;100266.00;;;;10375310;28;20218;-77
2024/03/03 22:15:50;;;;;;;8.17;4.47;;;;;6.70;100263.00;;;;10396643;28;20253;-78
2024/03/03 22:20:51;;;;;;;7.77;5.47;;;;;6.70;100264.00;;;;10360356;28;20238;-79
2024/03/03 22:25:53;;;;;;;7.83;5.60;;;;;6.70;100269.00;;;;10355349;28;20227;-78
2024/03/03 22:30:56;;;;;;;6.33;4.93;;;;;6.70;100254.00;;;;10375462;28;20673;-78
2024/03/03 22:35:57;;;;;;;7.53;4.70;;;;;6.60;100255.00;;;;10407833;28;20214;-78
2024/03/03 22:40:58;;;;;;;9.23;5.13;;;;;6.60;100258.00;;;;10366188;28;20296;-78
2024/03/03 22:45:59;;;;;;;6.07;4.93;;;;;6.50;100257.00;;;;10395356;28;20311;-79
2024/03/03 22:51:01;;;;;;;7.60;5.20;;;;;6.50;100251.00;;;;10360118;28;20940;-79
2024/03/03 22:56:04;;;;;;;8.03;5.33;;;;;6.50;100253.00;;;;10369541;28;20635;-78
2024/03/03 23:01:05;;;;;;;9.47;7.00;;;;;6.50;100266.00;;;;10410283;28;20601;-78
2024/03/03 23:06:09;;;;;;;8.63;6.63;;;;;6.50;100269.00;;;;10422096;28;21004;-78
2024/03/03 23:11:10;;;;;;;9.03;6.97;;;;;6.50;100268.00;;;;10382095;28;20317;-79
2024/03/03 23:16:11;;;;;;;9.13;6.93;;;;;6.50;100276.00;;;;10362898;28;20219;-76
2024/03/03 23:21:13;;;;;;;8.47;6.00;;;;;6.50;100273.00;;;;10366171;28;20218;-77
2024/03/03 23:26:14;;;;;;;11.03;7.33;;;;;6.50;100272.00;;;;10352637;28;20305;-78
2024/03/03 23:31:15;;;;;;;8.00;5.33;;;;;6.50;100261.00;;;;10372429;28;20264;-76
2024/03/03 23:36:17;;;;;;;9.83;5.87;;;;;6.50;100269.00;;;;10362547;28;20226;-77
2024/03/03 23:41:18;;;;;;;9.70;5.50;;;;;6.40;100270.00;;;;10378046;28;20764;-77
2024/03/03 23:46:19;;;;;;;7.77;4.90;;;;;6.40;100277.00;;;;10347445;28;20222;-76
2024/03/03 23:51:20;;;;;;;5.83;4.10;;;;;6.40;100273.00;;;;10344562;28;20227;-77
2024/03/03 23:56:21;;;;;;;5.73;3.17;;;;;6.40;100286.00;;;;10359226;28;20230;-77
